sensor_id;sensor_type;location;lat;lon;timestamp;P1;durP1;ratioP1;P2;durP2;ratioP2
32918;SDS011;19280;42.646;21.150;2022-09-03T00:01:26;7.72;;;5.60;;
32918;SDS011;19280;42.646;21.150;2022-09-03T00:03:58;6.65;;;5.97;;
32918;SDS011;19280;42.646;21.150;2022-09-03T00:06:34;6.53;;;5.78;;
32918;SDS011;19280;42.646;21.150;2022-09-03T00:09:05;7.57;;;6.13;;
32918;SDS011;19280;42.646;21.150;2022-09-03T00:14:06;7.57;;;6.78;;
32918;SDS011;19280;42.646;21.150;2022-09-03T00:16:45;9.95;;;7.10;;
32918;SDS011;19280;42.646;21.150;2022-09-03T00:19:16;8.63;;;6.40;;
32918;SDS011;19280;42.646;21.150;2022-09-03T00:21:45;10.50;;;7.13;;
32918;SDS011;19280;42.646;21.150;2022-09-03T00:24:13;8.63;;;6.90;;
32918;SDS011;19280;42.646;21.150;2022-09-03T00:26:44;11.85;;;6.15;;
32918;SDS011;19280;42.646;21.150;2022-09-03T00:32:14;12.85;;;7.40;;
32918;SDS011;19280;42.646;21.150;2022-09-03T00:34:44;8.75;;;7.18;;
32918;SDS011;19280;42.646;21.150;2022-09-03T00:37:12;11.00;;;7.28;;
32918;SDS011;19280;42.646;21.150;2022-09-03T00:39:39;10.75;;;7.93;;
32918;SDS011;19280;42.646;21.150;2022-09-03T00:47:28;12.38;;;8.40;;
32918;SDS011;19280;42.646;21.150;2022-09-03T00:52:45;17.38;;;9.77;;
32918;SDS011;19280;42.646;21.150;2022-09-03T00:58:21;20.05;;;11.20;;
32918;SDS011;19280;42.646;21.150;2022-09-03T01:00:54;14.80;;;10.77;;
32918;SDS011;19280;42.646;21.150;2022-09-03T01:06:23;14.43;;;10.63;;
32918;SDS011;19280;42.646;21.150;2022-09-03T01:08:54;21.35;;;11.10;;
32918;SDS011;19280;42.646;21.150;2022-09-03T01:16:47;11.65;;;9.60;;
32918;SDS011;19280;42.646;21.150;2022-09-03T01:19:29;13.85;;;9.75;;
32918;SDS011;19280;42.646;21.150;2022-09-03T01:29:54;12.32;;;9.15;;
32918;SDS011;19280;42.646;21.150;2022-09-03T01:35:03;12.85;;;10.38;;
32918;SDS011;19280;42.646;21.150;2022-09-03T01:37:35;12.52;;;9.65;;
32918;SDS011;19280;42.646;21.150;2022-09-03T01:45:25;16.17;;;9.35;;
32918;SDS011;19280;42.646;21.150;2022-09-03T01:50:53;10.48;;;9.15;;
32918;SDS011;19280;42.646;21.150;2022-09-03T01:58:41;13.57;;;8.32;;
32918;SDS011;19280;42.646;21.150;2022-09-03T02:01:12;11.20;;;8.40;;
32918;SDS011;19280;42.646;21.150;2022-09-03T02:03:41;8.90;;;7.47;;
32918;SDS011;19280;42.646;21.150;2022-09-03T02:06:09;10.43;;;8.23;;
32918;SDS011;19280;42.646;21.150;2022-09-03T02:08:36;11.25;;;8.00;;
32918;SDS011;19280;42.646;21.150;2022-09-03T02:11:04;10.07;;;8.20;;
32918;SDS011;19280;42.646;21.150;2022-09-03T02:13:40;10.10;;;8.57;;
32918;SDS011;19280;42.646;21.150;2022-09-03T02:16:11;13.07;;;8.82;;
32918;SDS011;19280;42.646;21.150;2022-09-03T02:18:43;9.52;;;8.45;;
32918;SDS011;19280;42.646;21.150;2022-09-03T02:21:12;12.98;;;9.93;;
32918;SDS011;19280;42.646;21.150;2022-09-03T02:23:40;11.57;;;9.38;;
32918;SDS011;19280;42.646;21.150;2022-09-03T02:26:07;12.05;;;9.45;;
32918;SDS011;19280;42.646;21.150;2022-09-03T02:28:38;13.98;;;9.80;;
32918;SDS011;19280;42.646;21.150;2022-09-03T02:31:05;12.68;;;9.82;;
32918;SDS011;19280;42.646;21.150;2022-09-03T02:33:34;12.75;;;10.32;;
32918;SDS011;19280;42.646;21.150;2022-09-03T02:36:06;15.55;;;9.95;;
32918;SDS011;19280;42.646;21.150;2022-09-03T02:38:34;13.40;;;9.25;;
32918;SDS011;19280;42.646;21.150;2022-09-03T02:41:01;10.00;;;8.18;;
32918;SDS011;19280;42.646;21.150;2022-09-03T02:43:33;14.00;;;9.20;;
32918;SDS011;19280;42.646;21.150;2022-09-03T02:46:04;13.00;;;9.63;;
32918;SDS011;19280;42.646;21.150;2022-09-03T02:48:33;11.90;;;9.25;;
32918;SDS011;19280;42.646;21.150;2022-09-03T02:51:00;14.40;;;10.23;;
32918;SDS011;19280;42.646;21.150;2022-09-03T02:53:27;10.90;;;8.35;;
32918;SDS011;19280;42.646;21.150;2022-09-03T02:55:58;10.55;;;7.55;;
32918;SDS011;19280;42.646;21.150;2022-09-03T02:58:25;10.25;;;7.95;;
32918;SDS011;19280;42.646;21.150;2022-09-03T03:00:52;11.77;;;7.80;;
32918;SDS011;19280;42.646;21.150;2022-09-03T03:03:19;9.80;;;7.57;;
32918;SDS011;19280;42.646;21.150;2022-09-03T03:08:13;10.93;;;6.78;;
32918;SDS011;19280;42.646;21.150;2022-09-03T03:10:40;8.80;;;6.78;;
32918;SDS011;19280;42.646;21.150;2022-09-03T03:13:09;10.20;;;6.53;;
32918;SDS011;19280;42.646;21.150;2022-09-03T03:15:36;15.50;;;6.88;;
32918;SDS011;19280;42.646;21.150;2022-09-03T03:18:03;16.60;;;6.65;;
32918;SDS011;19280;42.646;21.150;2022-09-03T03:20:32;9.82;;;6.95;;
32918;SDS011;19280;42.646;21.150;2022-09-03T03:23:02;12.43;;;6.78;;
32918;SDS011;19280;42.646;21.150;2022-09-03T03:25:34;13.67;;;7.23;;
32918;SDS011;19280;42.646;21.150;2022-09-03T03:28:01;7.73;;;6.47;;
32918;SDS011;19280;42.646;21.150;2022-09-03T03:30:28;11.23;;;7.60;;
32918;SDS011;19280;42.646;21.150;2022-09-03T03:32:55;13.63;;;8.32;;
32918;SDS011;19280;42.646;21.150;2022-09-03T03:35:22;9.73;;;7.28;;
32918;SDS011;19280;42.646;21.150;2022-09-03T03:37:49;10.75;;;7.47;;
32918;SDS011;19280;42.646;21.150;2022-09-03T03:40:16;9.90;;;7.63;;
32918;SDS011;19280;42.646;21.150;2022-09-03T03:42:44;13.13;;;8.00;;
32918;SDS011;19280;42.646;21.150;2022-09-03T03:45:11;9.57;;;7.65;;
32918;SDS011;19280;42.646;21.150;2022-09-03T03:47:38;9.63;;;7.72;;
32918;SDS011;19280;42.646;21.150;2022-09-03T03:50:04;9.27;;;7.55;;
32918;SDS011;19280;42.646;21.150;2022-09-03T03:52:31;11.93;;;8.25;;
32918;SDS011;19280;42.646;21.150;2022-09-03T03:54:58;12.45;;;8.60;;
32918;SDS011;19280;42.646;21.150;2022-09-03T03:57:28;14.05;;;9.07;;
32918;SDS011;19280;42.646;21.150;2022-09-03T03:59:54;12.05;;;9.27;;
32918;SDS011;19280;42.646;21.150;2022-09-03T04:02:21;14.25;;;8.90;;
32918;SDS011;19280;42.646;21.150;2022-09-03T04:04:48;12.70;;;8.48;;
32918;SDS011;19280;42.646;21.150;2022-09-03T04:07:14;10.23;;;7.70;;
32918;SDS011;19280;42.646;21.150;2022-09-03T04:09:41;11.63;;;7.78;;
32918;SDS011;19280;42.646;21.150;2022-09-03T04:12:08;9.75;;;6.75;;
32918;SDS011;19280;42.646;21.150;2022-09-03T04:14:35;8.73;;;6.80;;
32918;SDS011;19280;42.646;21.150;2022-09-03T04:17:01;10.98;;;6.57;;
32918;SDS011;19280;42.646;21.150;2022-09-03T04:19:28;9.80;;;6.85;;
32918;SDS011;19280;42.646;21.150;2022-09-03T04:21:55;8.07;;;6.03;;
32918;SDS011;19280;42.646;21.150;2022-09-03T04:24:22;9.27;;;6.38;;
32918;SDS011;19280;42.646;21.150;2022-09-03T04:26:48;7.13;;;6.22;;
32918;SDS011;19280;42.646;21.150;2022-09-03T04:29:15;7.60;;;6.32;;
32918;SDS011;19280;42.646;21.150;2022-09-03T04:31:42;8.90;;;6.30;;
32918;SDS011;19280;42.646;21.150;2022-09-03T04:34:29;8.57;;;6.07;;
32918;SDS011;19280;42.646;21.150;2022-09-03T04:36:56;8.50;;;6.20;;
32918;SDS011;19280;42.646;21.150;2022-09-03T04:39:23;9.95;;;7.10;;
32918;SDS011;19280;42.646;21.150;2022-09-03T04:41:50;8.18;;;6.20;;
32918;SDS011;19280;42.646;21.150;2022-09-03T04:44:17;10.32;;;6.57;;
32918;SDS011;19280;42.646;21.150;2022-09-03T04:46:43;10.10;;;6.43;;
32918;SDS011;19280;42.646;21.150;2022-09-03T04:49:12;12.50;;;5.88;;
32918;SDS011;19280;42.646;21.150;2022-09-03T04:51:39;7.28;;;5.57;;
32918;SDS011;19280;42.646;21.150;2022-09-03T04:54:06;12.45;;;5.30;;
32918;SDS011;19280;42.646;21.150;2022-09-03T04:56:34;9.20;;;5.93;;
32918;SDS011;19280;42.646;21.150;2022-09-03T04:59:02;7.15;;;5.25;;
32918;SDS011;19280;42.646;21.150;2022-09-03T05:01:30;8.68;;;5.85;;
32918;SDS011;19280;42.646;21.150;2022-09-03T05:03:57;6.93;;;5.47;;
32918;SDS011;19280;42.646;21.150;2022-09-03T05:06:24;6.10;;;4.82;;
32918;SDS011;19280;42.646;21.150;2022-09-03T05:08:51;5.93;;;4.68;;
32918;SDS011;19280;42.646;21.150;2022-09-03T05:11:19;11.23;;;5.65;;
32918;SDS011;19280;42.646;21.150;2022-09-03T05:13:46;6.43;;;4.68;;
32918;SDS011;19280;42.646;21.150;2022-09-03T05:16:13;7.47;;;4.78;;
32918;SDS011;19280;42.646;21.150;2022-09-03T05:18:40;7.13;;;4.93;;
32918;SDS011;19280;42.646;21.150;2022-09-03T05:21:08;8.55;;;4.93;;
32918;SDS011;19280;42.646;21.150;2022-09-03T05:23:36;7.60;;;5.03;;
32918;SDS011;19280;42.646;21.150;2022-09-03T05:26:04;9.55;;;5.38;;
32918;SDS011;19280;42.646;21.150;2022-09-03T05:28:34;8.32;;;5.70;;
32918;SDS011;19280;42.646;21.150;2022-09-03T05:31:01;8.45;;;5.65;;
32918;SDS011;19280;42.646;21.150;2022-09-03T05:33:29;7.43;;;5.43;;
32918;SDS011;19280;42.646;21.150;2022-09-03T05:36:02;7.05;;;5.20;;
32918;SDS011;19280;42.646;21.150;2022-09-03T05:38:29;8.68;;;5.13;;
32918;SDS011;19280;42.646;21.150;2022-09-03T05:41:00;12.55;;;5.82;;
32918;SDS011;19280;42.646;21.150;2022-09-03T05:43:27;9.48;;;5.20;;
32918;SDS011;19280;42.646;21.150;2022-09-03T05:45:57;8.15;;;5.00;;
32918;SDS011;19280;42.646;21.150;2022-09-03T05:48:25;17.03;;;5.40;;
32918;SDS011;19280;42.646;21.150;2022-09-03T05:51:00;7.95;;;4.78;;
32918;SDS011;19280;42.646;21.150;2022-09-03T05:53:28;9.38;;;4.68;;
32918;SDS011;19280;42.646;21.150;2022-09-03T05:55:59;7.20;;;4.82;;
32918;SDS011;19280;42.646;21.150;2022-09-03T05:58:34;11.80;;;5.20;;
32918;SDS011;19280;42.646;21.150;2022-09-03T06:03:38;7.90;;;5.13;;
32918;SDS011;19280;42.646;21.150;2022-09-03T06:06:05;7.65;;;5.38;;
32918;SDS011;19280;42.646;21.150;2022-09-03T06:08:32;11.32;;;5.55;;
32918;SDS011;19280;42.646;21.150;2022-09-03T06:10:59;8.65;;;5.25;;
32918;SDS011;19280;42.646;21.150;2022-09-03T06:13:28;6.70;;;5.20;;
32918;SDS011;19280;42.646;21.150;2022-09-03T06:15:59;9.32;;;4.95;;
32918;SDS011;19280;42.646;21.150;2022-09-03T06:18:27;6.97;;;5.30;;
32918;SDS011;19280;42.646;21.150;2022-09-03T06:20:57;8.00;;;5.10;;
32918;SDS011;19280;42.646;21.150;2022-09-03T06:23:24;9.55;;;5.10;;
32918;SDS011;19280;42.646;21.150;2022-09-03T06:26:05;6.90;;;5.22;;
32918;SDS011;19280;42.646;21.150;2022-09-03T06:28:32;8.37;;;5.53;;
32918;SDS011;19280;42.646;21.150;2022-09-03T06:31:01;8.43;;;5.25;;
32918;SDS011;19280;42.646;21.150;2022-09-03T06:33:29;5.93;;;4.95;;
32918;SDS011;19280;42.646;21.150;2022-09-03T06:35:57;5.85;;;5.25;;
32918;SDS011;19280;42.646;21.150;2022-09-03T06:38:24;12.65;;;5.15;;
32918;SDS011;19280;42.646;21.150;2022-09-03T06:40:55;6.80;;;4.50;;
32918;SDS011;19280;42.646;21.150;2022-09-03T06:43:22;8.20;;;4.05;;
32918;SDS011;19280;42.646;21.150;2022-09-03T06:45:52;5.40;;;4.47;;
32918;SDS011;19280;42.646;21.150;2022-09-03T06:48:19;5.90;;;4.43;;
32918;SDS011;19280;42.646;21.150;2022-09-03T06:53:27;5.18;;;4.38;;
32918;SDS011;19280;42.646;21.150;2022-09-03T06:55:58;5.43;;;4.20;;
32918;SDS011;19280;42.646;21.150;2022-09-03T06:58:37;4.80;;;3.33;;
32918;SDS011;19280;42.646;21.150;2022-09-03T07:01:05;4.03;;;3.47;;
32918;SDS011;19280;42.646;21.150;2022-09-03T07:03:32;5.80;;;3.22;;
32918;SDS011;19280;42.646;21.150;2022-09-03T07:06:03;9.18;;;3.00;;
32918;SDS011;19280;42.646;21.150;2022-09-03T07:08:30;3.85;;;2.88;;
32918;SDS011;19280;42.646;21.150;2022-09-03T07:10:58;5.22;;;2.92;;
32918;SDS011;19280;42.646;21.150;2022-09-03T07:13:26;3.33;;;2.47;;
32918;SDS011;19280;42.646;21.150;2022-09-03T07:16:10;4.20;;;2.78;;
32918;SDS011;19280;42.646;21.150;2022-09-03T07:18:38;2.78;;;2.58;;
32918;SDS011;19280;42.646;21.150;2022-09-03T07:21:06;2.45;;;2.25;;
32918;SDS011;19280;42.646;21.150;2022-09-03T07:23:34;4.93;;;2.50;;
32918;SDS011;19280;42.646;21.150;2022-09-03T07:26:02;5.53;;;2.78;;
32918;SDS011;19280;42.646;21.150;2022-09-03T07:28:29;4.38;;;2.83;;
32918;SDS011;19280;42.646;21.150;2022-09-03T07:31:01;6.30;;;3.15;;
32918;SDS011;19280;42.646;21.150;2022-09-03T07:33:28;4.05;;;2.95;;
32918;SDS011;19280;42.646;21.150;2022-09-03T07:36:00;6.95;;;3.28;;
32918;SDS011;19280;42.646;21.150;2022-09-03T07:38:27;6.15;;;3.42;;
32918;SDS011;19280;42.646;21.150;2022-09-03T07:40:57;3.30;;;2.88;;
32918;SDS011;19280;42.646;21.150;2022-09-03T07:43:25;7.65;;;3.67;;
32918;SDS011;19280;42.646;21.150;2022-09-03T07:45:53;6.53;;;3.17;;
32918;SDS011;19280;42.646;21.150;2022-09-03T07:48:21;8.60;;;2.95;;
32918;SDS011;19280;42.646;21.150;2022-09-03T07:50:48;4.32;;;3.70;;
32918;SDS011;19280;42.646;21.150;2022-09-03T07:53:15;4.70;;;3.25;;
32918;SDS011;19280;42.646;21.150;2022-09-03T07:55:42;4.05;;;2.95;;
32918;SDS011;19280;42.646;21.150;2022-09-03T07:58:10;5.40;;;2.90;;
32918;SDS011;19280;42.646;21.150;2022-09-03T08:00:37;3.65;;;3.03;;
32918;SDS011;19280;42.646;21.150;2022-09-03T08:03:04;5.47;;;3.75;;
32918;SDS011;19280;42.646;21.150;2022-09-03T08:05:34;6.05;;;3.47;;
32918;SDS011;19280;42.646;21.150;2022-09-03T08:08:01;4.45;;;3.05;;
32918;SDS011;19280;42.646;21.150;2022-09-03T08:10:28;5.05;;;3.33;;
32918;SDS011;19280;42.646;21.150;2022-09-03T08:12:56;4.78;;;3.25;;
32918;SDS011;19280;42.646;21.150;2022-09-03T08:15:24;7.00;;;3.63;;
32918;SDS011;19280;42.646;21.150;2022-09-03T08:17:51;3.50;;;3.03;;
32918;SDS011;19280;42.646;21.150;2022-09-03T08:20:18;4.47;;;3.42;;
32918;SDS011;19280;42.646;21.150;2022-09-03T08:22:45;5.40;;;3.10;;
32918;SDS011;19280;42.646;21.150;2022-09-03T08:25:12;4.22;;;2.95;;
32918;SDS011;19280;42.646;21.150;2022-09-03T08:27:39;4.47;;;3.30;;
32918;SDS011;19280;42.646;21.150;2022-09-03T08:30:07;3.25;;;2.95;;
32918;SDS011;19280;42.646;21.150;2022-09-03T08:32:37;4.45;;;3.42;;
32918;SDS011;19280;42.646;21.150;2022-09-03T08:35:05;3.45;;;3.00;;
32918;SDS011;19280;42.646;21.150;2022-09-03T08:37:34;6.15;;;3.20;;
32918;SDS011;19280;42.646;21.150;2022-09-03T08:40:01;4.72;;;3.20;;
32918;SDS011;19280;42.646;21.150;2022-09-03T08:44:59;4.47;;;4.07;;
32918;SDS011;19280;42.646;21.150;2022-09-03T08:47:36;9.75;;;5.13;;
32918;SDS011;19280;42.646;21.150;2022-09-03T08:52:50;4.72;;;3.03;;
32918;SDS011;19280;42.646;21.150;2022-09-03T08:57:58;4.30;;;3.50;;
32918;SDS011;19280;42.646;21.150;2022-09-03T09:00:28;5.30;;;3.10;;
32918;SDS011;19280;42.646;21.150;2022-09-03T09:03:04;3.47;;;3.05;;
32918;SDS011;19280;42.646;21.150;2022-09-03T09:08:29;4.38;;;3.97;;
32918;SDS011;19280;42.646;21.150;2022-09-03T09:13:37;6.57;;;3.05;;
32918;SDS011;19280;42.646;21.150;2022-09-03T09:18:51;4.28;;;3.05;;
32918;SDS011;19280;42.646;21.150;2022-09-03T09:21:29;2.65;;;2.38;;
32918;SDS011;19280;42.646;21.150;2022-09-03T09:23:59;4.25;;;2.45;;
32918;SDS011;19280;42.646;21.150;2022-09-03T09:26:28;5.03;;;2.45;;
32918;SDS011;19280;42.646;21.150;2022-09-03T09:28:59;3.38;;;2.75;;
32918;SDS011;19280;42.646;21.150;2022-09-03T09:31:28;5.28;;;3.20;;
32918;SDS011;19280;42.646;21.150;2022-09-03T09:34:05;5.70;;;2.75;;
32918;SDS011;19280;42.646;21.150;2022-09-03T09:36:51;6.53;;;3.33;;
32918;SDS011;19280;42.646;21.150;2022-09-03T09:39:18;3.95;;;2.97;;
32918;SDS011;19280;42.646;21.150;2022-09-03T09:42:00;4.75;;;2.58;;
32918;SDS011;19280;42.646;21.150;2022-09-03T09:44:30;7.15;;;3.50;;
32918;SDS011;19280;42.646;21.150;2022-09-03T09:49:35;21.58;;;5.45;;
32918;SDS011;19280;42.646;21.150;2022-09-03T09:52:05;15.55;;;4.75;;
32918;SDS011;19280;42.646;21.150;2022-09-03T09:54:33;11.13;;;4.57;;
32918;SDS011;19280;42.646;21.150;2022-09-03T09:57:00;7.28;;;3.83;;
32918;SDS011;19280;42.646;21.150;2022-09-03T09:59:28;14.77;;;4.40;;
32918;SDS011;19280;42.646;21.150;2022-09-03T10:02:06;25.85;;;5.57;;
32918;SDS011;19280;42.646;21.150;2022-09-03T10:04:36;23.60;;;5.65;;
32918;SDS011;19280;42.646;21.150;2022-09-03T10:09:32;15.52;;;3.83;;
32918;SDS011;19280;42.646;21.150;2022-09-03T10:14:29;18.38;;;3.40;;
32918;SDS011;19280;42.646;21.150;2022-09-03T10:17:02;8.55;;;2.38;;
32918;SDS011;19280;42.646;21.150;2022-09-03T10:19:35;10.53;;;4.17;;
32918;SDS011;19280;42.646;21.150;2022-09-03T10:22:09;21.52;;;4.97;;
32918;SDS011;19280;42.646;21.150;2022-09-03T10:24:58;18.10;;;4.13;;
32918;SDS011;19280;42.646;21.150;2022-09-03T10:27:24;5.93;;;2.10;;
32918;SDS011;19280;42.646;21.150;2022-09-03T10:29:52;15.30;;;3.65;;
32918;SDS011;19280;42.646;21.150;2022-09-03T10:32:22;8.38;;;3.42;;
32918;SDS011;19280;42.646;21.150;2022-09-03T10:34:57;32.58;;;5.13;;
32918;SDS011;19280;42.646;21.150;2022-09-03T10:42:59;62.53;;;11.50;;
32918;SDS011;19280;42.646;21.150;2022-09-03T10:51:05;28.77;;;6.63;;
32918;SDS011;19280;42.646;21.150;2022-09-03T10:56:25;33.88;;;7.18;;
32918;SDS011;19280;42.646;21.150;2022-09-03T10:59:00;12.68;;;3.70;;
32918;SDS011;19280;42.646;21.150;2022-09-03T11:01:33;14.30;;;4.57;;
32918;SDS011;19280;42.646;21.150;2022-09-03T11:04:18;14.32;;;3.97;;
32918;SDS011;19280;42.646;21.150;2022-09-03T11:07:20;15.63;;;4.15;;
32918;SDS011;19280;42.646;21.150;2022-09-03T11:09:41;7.60;;;3.00;;
32918;SDS011;19280;42.646;21.150;2022-09-03T11:12:10;12.70;;;2.67;;
32918;SDS011;19280;42.646;21.150;2022-09-03T11:14:45;46.75;;;10.05;;
32918;SDS011;19280;42.646;21.150;2022-09-03T11:17:18;41.88;;;8.20;;
32918;SDS011;19280;42.646;21.150;2022-09-03T11:19:53;55.30;;;10.95;;
32918;SDS011;19280;42.646;21.150;2022-09-03T11:22:22;56.47;;;9.65;;
32918;SDS011;19280;42.646;21.150;2022-09-03T11:24:52;53.20;;;9.95;;
32918;SDS011;19280;42.646;21.150;2022-09-03T11:30:04;25.80;;;5.50;;
32918;SDS011;19280;42.646;21.150;2022-09-03T11:32:39;25.95;;;4.93;;
32918;SDS011;19280;42.646;21.150;2022-09-03T11:35:15;38.22;;;6.38;;
32918;SDS011;19280;42.646;21.150;2022-09-03T11:38:02;36.58;;;6.93;;
32918;SDS011;19280;42.646;21.150;2022-09-03T11:48:36;29.10;;;6.35;;
32918;SDS011;19280;42.646;21.150;2022-09-03T11:51:14;30.15;;;5.97;;
32918;SDS011;19280;42.646;21.150;2022-09-03T11:53:52;30.13;;;6.90;;
32918;SDS011;19280;42.646;21.150;2022-09-03T11:56:20;25.33;;;6.28;;
32918;SDS011;19280;42.646;21.150;2022-09-03T11:59:02;24.80;;;5.45;;
32918;SDS011;19280;42.646;21.150;2022-09-03T12:04:00;15.15;;;4.70;;
32918;SDS011;19280;42.646;21.150;2022-09-03T12:06:33;18.23;;;5.68;;
32918;SDS011;19280;42.646;21.150;2022-09-03T12:14:09;16.63;;;4.30;;
32918;SDS011;19280;42.646;21.150;2022-09-03T12:19:35;19.75;;;3.83;;
32918;SDS011;19280;42.646;21.150;2022-09-03T12:21:57;20.20;;;4.07;;
32918;SDS011;19280;42.646;21.150;2022-09-03T12:24:29;15.32;;;3.70;;
32918;SDS011;19280;42.646;21.150;2022-09-03T12:27:02;19.05;;;4.35;;
32918;SDS011;19280;42.646;21.150;2022-09-03T12:29:29;9.50;;;2.70;;
32918;SDS011;19280;42.646;21.150;2022-09-03T12:32:10;8.07;;;2.63;;
32918;SDS011;19280;42.646;21.150;2022-09-03T12:34:37;14.17;;;2.57;;
32918;SDS011;19280;42.646;21.150;2022-09-03T12:37:13;11.60;;;3.33;;
32918;SDS011;19280;42.646;21.150;2022-09-03T12:39:48;7.80;;;3.05;;
32918;SDS011;19280;42.646;21.150;2022-09-03T12:42:25;15.32;;;3.28;;
32918;SDS011;19280;42.646;21.150;2022-09-03T12:44:53;13.43;;;3.38;;
32918;SDS011;19280;42.646;21.150;2022-09-03T12:47:23;13.02;;;2.92;;
32918;SDS011;19280;42.646;21.150;2022-09-03T12:49:51;12.75;;;3.05;;
32918;SDS011;19280;42.646;21.150;2022-09-03T12:57:31;14.90;;;3.25;;
32918;SDS011;19280;42.646;21.150;2022-09-03T13:00:02;19.73;;;4.25;;
32918;SDS011;19280;42.646;21.150;2022-09-03T13:05:07;31.38;;;4.70;;
32918;SDS011;19280;42.646;21.150;2022-09-03T13:07:37;16.67;;;4.30;;
32918;SDS011;19280;42.646;21.150;2022-09-03T13:10:04;11.30;;;2.90;;
32918;SDS011;19280;42.646;21.150;2022-09-03T13:12:45;3.95;;;2.20;;
32918;SDS011;19280;42.646;21.150;2022-09-03T13:15:23;7.90;;;2.13;;
32918;SDS011;19280;42.646;21.150;2022-09-03T13:17:57;11.05;;;3.15;;
32918;SDS011;19280;42.646;21.150;2022-09-03T13:25:34;8.63;;;2.88;;
32918;SDS011;19280;42.646;21.150;2022-09-03T13:28:06;16.20;;;3.83;;
32918;SDS011;19280;42.646;21.150;2022-09-03T13:35:50;10.20;;;3.45;;
32918;SDS011;19280;42.646;21.150;2022-09-03T13:40:51;13.35;;;3.17;;
32918;SDS011;19280;42.646;21.150;2022-09-03T13:45:51;12.20;;;3.38;;
32918;SDS011;19280;42.646;21.150;2022-09-03T13:48:24;10.10;;;2.88;;
32918;SDS011;19280;42.646;21.150;2022-09-03T13:51:27;17.25;;;3.40;;
32918;SDS011;19280;42.646;21.150;2022-09-03T13:56:40;11.55;;;3.05;;
32918;SDS011;19280;42.646;21.150;2022-09-03T13:59:18;6.95;;;2.50;;
32918;SDS011;19280;42.646;21.150;2022-09-03T14:01:54;6.05;;;2.30;;
32918;SDS011;19280;42.646;21.150;2022-09-03T14:12:39;5.57;;;2.00;;
32918;SDS011;19280;42.646;21.150;2022-09-03T14:20:31;14.68;;;3.83;;
32918;SDS011;19280;42.646;21.150;2022-09-03T14:23:22;9.25;;;3.60;;
32918;SDS011;19280;42.646;21.150;2022-09-03T14:25:56;10.25;;;3.42;;
32918;SDS011;19280;42.646;21.150;2022-09-03T14:28:30;12.10;;;3.63;;
32918;SDS011;19280;42.646;21.150;2022-09-03T14:31:09;22.00;;;5.68;;
32918;SDS011;19280;42.646;21.150;2022-09-03T14:33:42;12.10;;;4.17;;
32918;SDS011;19280;42.646;21.150;2022-09-03T14:49:07;16.58;;;4.85;;
32918;SDS011;19280;42.646;21.150;2022-09-03T15:04:54;20.05;;;5.97;;
32918;SDS011;19280;42.646;21.150;2022-09-03T15:07:35;26.15;;;5.43;;
32918;SDS011;19280;42.646;21.150;2022-09-03T15:12:54;29.98;;;6.82;;
32918;SDS011;19280;42.646;21.150;2022-09-03T15:15:26;38.17;;;8.77;;
32918;SDS011;19280;42.646;21.150;2022-09-03T15:18:01;34.88;;;6.68;;
32918;SDS011;19280;42.646;21.150;2022-09-03T15:23:29;39.28;;;7.50;;
32918;SDS011;19280;42.646;21.150;2022-09-03T15:31:26;36.35;;;7.85;;
32918;SDS011;19280;42.646;21.150;2022-09-03T15:36:42;21.90;;;6.47;;
32918;SDS011;19280;42.646;21.150;2022-09-03T15:39:18;26.73;;;5.85;;
32918;SDS011;19280;42.646;21.150;2022-09-03T15:41:49;20.50;;;5.97;;
32918;SDS011;19280;42.646;21.150;2022-09-03T15:44:18;19.40;;;5.10;;
32918;SDS011;19280;42.646;21.150;2022-09-03T15:46:49;17.40;;;4.40;;
32918;SDS011;19280;42.646;21.150;2022-09-03T15:49:22;15.30;;;4.07;;
32918;SDS011;19280;42.646;21.150;2022-09-03T16:00:00;7.93;;;3.55;;
32918;SDS011;19280;42.646;21.150;2022-09-03T16:05:10;12.88;;;3.92;;
32918;SDS011;19280;42.646;21.150;2022-09-03T16:07:43;5.40;;;3.20;;
32918;SDS011;19280;42.646;21.150;2022-09-03T16:10:17;8.32;;;3.20;;
32918;SDS011;19280;42.646;21.150;2022-09-03T16:15:27;11.80;;;4.82;;
32918;SDS011;19280;42.646;21.150;2022-09-03T16:23:04;13.48;;;6.57;;
32918;SDS011;19280;42.646;21.150;2022-09-03T16:28:19;7.70;;;5.38;;
32918;SDS011;19280;42.646;21.150;2022-09-03T16:39:11;11.30;;;6.47;;
32918;SDS011;19280;42.646;21.150;2022-09-03T17:18:34;13.63;;;8.95;;
32918;SDS011;19280;42.646;21.150;2022-09-03T17:39:50;20.15;;;12.07;;
32918;SDS011;19280;42.646;21.150;2022-09-03T17:52:43;22.73;;;13.25;;
32918;SDS011;19280;42.646;21.150;2022-09-03T17:55:14;20.83;;;12.52;;
32918;SDS011;19280;42.646;21.150;2022-09-03T17:57:44;14.38;;;11.13;;
32918;SDS011;19280;42.646;21.150;2022-09-03T18:00:20;20.58;;;12.10;;
32918;SDS011;19280;42.646;21.150;2022-09-03T18:02:52;20.13;;;12.57;;
32918;SDS011;19280;42.646;21.150;2022-09-03T18:05:21;20.98;;;12.77;;
32918;SDS011;19280;42.646;21.150;2022-09-03T18:07:52;18.67;;;12.63;;
32918;SDS011;19280;42.646;21.150;2022-09-03T18:12:53;21.48;;;12.82;;
32918;SDS011;19280;42.646;21.150;2022-09-03T18:16:25;20.77;;;13.57;;
32918;SDS011;19280;42.646;21.150;2022-09-03T18:18:29;18.63;;;13.50;;
32918;SDS011;19280;42.646;21.150;2022-09-03T18:20:57;24.42;;;13.98;;
32918;SDS011;19280;42.646;21.150;2022-09-03T18:26:28;22.40;;;13.88;;
32918;SDS011;19280;42.646;21.150;2022-09-03T18:30:04;24.95;;;14.77;;
32918;SDS011;19280;42.646;21.150;2022-09-03T18:32:22;22.20;;;13.38;;
32918;SDS011;19280;42.646;21.150;2022-09-03T18:35:08;20.95;;;13.30;;
32918;SDS011;19280;42.646;21.150;2022-09-03T18:37:53;26.88;;;13.75;;
32918;SDS011;19280;42.646;21.150;2022-09-03T18:40:42;24.08;;;12.35;;
32918;SDS011;19280;42.646;21.150;2022-09-03T18:46:33;29.83;;;14.52;;
32918;SDS011;19280;42.646;21.150;2022-09-03T19:00:56;18.83;;;12.15;;
32918;SDS011;19280;42.646;21.150;2022-09-03T19:06:50;27.35;;;12.70;;
32918;SDS011;19280;42.646;21.150;2022-09-03T19:09:47;21.45;;;12.68;;
32918;SDS011;19280;42.646;21.150;2022-09-03T19:12:37;19.13;;;12.57;;
32918;SDS011;19280;42.646;21.150;2022-09-03T19:15:25;19.23;;;12.55;;
32918;SDS011;19280;42.646;21.150;2022-09-03T19:21:21;22.38;;;13.07;;
32918;SDS011;19280;42.646;21.150;2022-09-03T19:24:07;22.30;;;13.38;;
32918;SDS011;19280;42.646;21.150;2022-09-03T19:29:59;21.88;;;13.30;;
32918;SDS011;19280;42.646;21.150;2022-09-03T19:35:41;26.42;;;12.40;;
32918;SDS011;19280;42.646;21.150;2022-09-03T19:41:36;19.80;;;12.93;;
32918;SDS011;19280;42.646;21.150;2022-09-03T19:44:26;23.17;;;13.40;;
32918;SDS011;19280;42.646;21.150;2022-09-03T19:47:25;21.33;;;12.85;;
32918;SDS011;19280;42.646;21.150;2022-09-03T19:53:07;22.33;;;13.70;;
32918;SDS011;19280;42.646;21.150;2022-09-03T19:55:55;28.02;;;15.13;;
32918;SDS011;19280;42.646;21.150;2022-09-03T19:58:53;28.85;;;15.13;;
32918;SDS011;19280;42.646;21.150;2022-09-03T20:01:38;30.17;;;14.70;;
32918;SDS011;19280;42.646;21.150;2022-09-03T20:04:33;22.23;;;13.60;;
32918;SDS011;19280;42.646;21.150;2022-09-03T20:07:19;24.75;;;15.13;;
32918;SDS011;19280;42.646;21.150;2022-09-03T20:10:07;19.88;;;12.75;;
32918;SDS011;19280;42.646;21.150;2022-09-03T20:12:57;19.38;;;12.85;;
32918;SDS011;19280;42.646;21.150;2022-09-03T20:29:26;26.90;;;16.90;;
32918;SDS011;19280;42.646;21.150;2022-09-03T20:32:02;26.90;;;14.27;;
32918;SDS011;19280;42.646;21.150;2022-09-03T20:37:11;18.45;;;12.73;;
32918;SDS011;19280;42.646;21.150;2022-09-03T20:39:50;21.33;;;13.20;;